Flight Track Log - Related Links

Times and Time Zones

All times are in EDT time to prevent confusion due to time zone crossing. See the EJA922 flight status page for this flight to view local times or setup timezone preferences in your user account.

Time Position Orientation Groundspeed Altitude Reporting Facility
EDT Latitude Longitude Course Direction KTS MPH feet Rate Location/Type
Thu 05:59:18 AM 38.1500 -85.7167 163° South 176 203 1,600  Level Louisville TRACON
Thu 06:00:26 AM 38.1014 -85.6983 163° South 212 244 5,100 3,047 Climbing Indianapolis Center
Thu 06:01:26 AM 38.0806 -85.6111 107° East 272 313 8,100 2,800 Climbing Indianapolis Center
Thu 06:02:26 AM 38.0792 -85.5103 91° East 285 328 10,700 1,934 Climbing Indianapolis Center
Thu 06:03:27 AM 38.0725 -85.3897 94° East 342 394 12,000 1,835 Climbing Indianapolis Center
Thu 06:04:27 AM 38.0228 -85.2789 120° Southeast 357 411 14,400 2,100 Climbing Indianapolis Center
Thu 06:05:27 AM 37.9764 -85.1728 119° Southeast 363 418 16,200 1,736 Climbing Indianapolis Center
Thu 06:06:28 AM 37.9267 -85.0553 118° Southeast 375 432 17,900 1,636 Climbing Indianapolis Center
Thu 06:07:28 AM 37.8736 -84.9369 120° Southeast 384 442 19,500 1,500 Climbing Indianapolis Center
Thu 06:08:28 AM 37.8211 -84.8164 119° Southeast 390 449 20,900 1,240 Climbing Indianapolis Center
Thu 06:09:29 AM 37.7678 -84.6922 118° Southeast 398 458 22,000 1,339 Climbing Indianapolis Center
Thu 06:10:29 AM 37.7161 -84.5756 119° Southeast 383 441 23,600 1,500 Climbing Indianapolis Center
Thu 06:11:29 AM 37.6661 -84.4636 119° Southeast 368 423 25,000 1,240 Climbing Indianapolis Center
Thu 06:12:30 AM 37.6069 -84.3314 119° Southeast 370 426 26,100 1,190 Climbing Indianapolis Center
Thu 06:13:30 AM 37.5561 -84.2150 119° Southeast 378 435 27,400 1,200 Climbing Indianapolis Center
Thu 06:14:30 AM 37.5050 -84.1014 120° Southeast 373 429 28,500 1,091 Climbing Indianapolis Center
Thu 06:15:31 AM 37.4547 -83.9872 119° Southeast 372 428 29,600 1,190 Climbing Indianapolis Center
Thu 06:16:31 AM 37.4028 -83.8731 120° Southeast 375 432 30,900 700 Climbing Indianapolis Center
Thu 06:17:31 AM 37.3464 -83.7503 120° Southeast 403 464 31,000 50 Climbing Indianapolis Center
Thu 06:18:32 AM 37.2858 -83.6158 119° Southeast 437 503 31,000  Level Indianapolis Center
Thu 06:19:32 AM 37.2225 -83.4756 120° Southeast 458 527 31,000  Level Indianapolis Center
Thu 06:20:33 AM 37.1561 -83.3308 120° Southeast 473 544 31,000  Level Indianapolis Center
Thu 06:21:33 AM 37.0911 -83.1894 120° Southeast 470 541 31,000  Level Indianapolis Center
Thu 06:22:33 AM 37.0267 -83.0503 120° Southeast 464 534 31,000  Level Indianapolis Center
Thu 06:23:34 AM 36.9706 -82.9261 119° Southeast 460 529 31,000  Level Indianapolis Center
Thu 06:24:34 AM 36.9011 -82.7808 121° Southeast 466 536 31,000  Level Indianapolis Center
Thu 06:25:35 AM 36.8325 -82.6344 120° Southeast 481 554 31,000  Level Indianapolis Center
Thu 06:26:35 AM 36.7636 -82.4872 120° Southeast 488 562 31,000  Level Indianapolis Center
Thu 06:27:35 AM 36.6944 -82.3394 120° Southeast 491 565 31,000 -248 Level Indianapolis Center
Thu 06:28:36 AM 36.6250 -82.1875 120° Southeast 501 577 30,500 -1,438 Descending Indianapolis Center
Thu 06:29:36 AM 36.5561 -82.0364 120° Southeast 503 579 28,100 -2,380 Descending Indianapolis Center
Thu 06:30:37 AM 36.4897 -81.8942 120° Southeast 479 551 25,700 -2,033 Descending Indianapolis Center
Thu 06:31:37 AM 36.4269 -81.7533 119° Southeast 468 539 24,000 -1,339 Descending Indianapolis Center
Thu 06:32:38 AM 36.3656 -81.6192 120° Southeast 449 517 23,000 -496 Descending Indianapolis Center
Thu 06:33:38 AM 36.3061 -81.4856 119° Southeast 441 507 23,000  Level Indianapolis Center
Thu 06:34:39 AM 36.2394 -81.3564 123° Southeast 445 512 23,000  Level Indianapolis Center
Thu 06:35:54 AM 36.1522 -81.1767 121° Southeast 438 504 23,000  Level Atlanta Center
Thu 06:36:54 AM 36.0931 -81.0606 122° Southeast 438 504 23,000  Level Atlanta Center
Thu 06:37:54 AM 36.0192 -80.9453 128° Southeast 438 504 23,000  Level Atlanta Center
Thu 06:38:54 AM 35.9111 -80.8750 152° Southeast 418 481 23,000  Level Atlanta Center
Thu 06:39:54 AM 35.8069 -80.8047 151° Southeast 429 494 23,000 -300 Level Atlanta Center
Thu 06:40:54 AM 35.6881 -80.7250 151° Southeast 435 501 22,400 -1,450 Descending Atlanta Center
Thu 06:41:54 AM 35.5817 -80.6478 149° Southeast 445 512 20,100 -2,200 Descending Atlanta Center
Thu 06:42:54 AM 35.5197 -80.5253 122° Southeast 422 486 18,000 -2,300 Descending Atlanta Center
Thu 06:43:54 AM 35.4886 -80.3889 106° East 405 466 15,500 -2,400 Descending Atlanta Center
Thu 06:44:54 AM 35.4556 -80.2603 107° East 398 458 13,200 -1,250 Descending Atlanta Center
Thu 06:45:54 AM 35.4264 -80.1292 105° East 398 458 13,000 -750 Descending Atlanta Center
Thu 06:46:54 AM 35.3956 -80.0083 107° East 380 437 11,700 -1,300 Descending Atlanta Center
Thu 06:47:54 AM 35.3672 -79.9103 109° East 353 406 10,400 -1,300 Descending Atlanta Center

Login

Don't have an account? Register now (free) for customized features, flight alerts, and more!